sensor_id;sensor_type;location;lat;lon;timestamp;pressure;altitude;pressure_sealevel;temperature;humidity
54948;BME280;41113;41.882;12.530;2023-07-29T00:01:11;100982.78;;;24.83;61.04
54948;BME280;41113;41.882;12.530;2023-07-29T00:03:36;100976.44;;;24.82;60.49
54948;BME280;41113;41.882;12.530;2023-07-29T00:06:01;100971.19;;;24.81;61.00
54948;BME280;41113;41.882;12.530;2023-07-29T00:08:27;100972.72;;;24.70;61.16
54948;BME280;41113;41.882;12.530;2023-07-29T00:10:52;100976.53;;;24.69;62.03
54948;BME280;41113;41.882;12.530;2023-07-29T00:13:17;100978.44;;;24.69;61.58
54948;BME280;41113;41.882;12.530;2023-07-29T00:15:43;100973.16;;;24.67;61.75
54948;BME280;41113;41.882;12.530;2023-07-29T00:18:08;100962.56;;;24.71;61.98
54948;BME280;41113;41.882;12.530;2023-07-29T00:20:34;100963.41;;;24.71;61.36
54948;BME280;41113;41.882;12.530;2023-07-29T00:22:59;100953.31;;;24.72;61.35
54948;BME280;41113;41.882;12.530;2023-07-29T00:25:24;100951.25;;;24.61;61.91
54948;BME280;41113;41.882;12.530;2023-07-29T00:27:50;100956.78;;;24.54;62.39
54948;BME280;41113;41.882;12.530;2023-07-29T00:30:15;100956.78;;;24.54;62.26
54948;BME280;41113;41.882;12.530;2023-07-29T00:32:41;100957.91;;;24.46;62.88
54948;BME280;41113;41.882;12.530;2023-07-29T00:35:06;100961.72;;;24.45;62.72
54948;BME280;41113;41.882;12.530;2023-07-29T00:37:32;100961.09;;;24.37;62.40
54948;BME280;41113;41.882;12.530;2023-07-29T00:39:57;100953.13;;;24.29;63.43
54948;BME280;41113;41.882;12.530;2023-07-29T00:42:23;100957.34;;;24.31;62.94
54948;BME280;41113;41.882;12.530;2023-07-29T00:44:49;100951.81;;;24.38;62.29
54948;BME280;41113;41.882;12.530;2023-07-29T00:47:15;100953.66;;;24.50;61.64
54948;BME280;41113;41.882;12.530;2023-07-29T00:49:41;100956.44;;;24.44;61.69
54948;BME280;41113;41.882;12.530;2023-07-29T00:52:07;100956.44;;;24.44;61.18
54948;BME280;41113;41.882;12.530;2023-07-29T00:54:33;100958.19;;;24.25;61.18
54948;BME280;41113;41.882;12.530;2023-07-29T00:56:58;100957.22;;;24.13;61.70
54948;BME280;41113;41.882;12.530;2023-07-29T00:59:24;100952.38;;;24.02;61.84
54948;BME280;41113;41.882;12.530;2023-07-29T01:01:50;100952.47;;;23.88;61.89
54948;BME280;41113;41.882;12.530;2023-07-29T01:04:15;100952.38;;;24.02;61.26
54948;BME280;41113;41.882;12.530;2023-07-29T01:12:27;100944.22;;;23.88;61.46
54948;BME280;41113;41.882;12.530;2023-07-29T01:15:01;100940.88;;;23.86;61.42
54948;BME280;41113;41.882;12.530;2023-07-29T01:17:33;100945.69;;;23.91;61.43
54948;BME280;41113;41.882;12.530;2023-07-29T01:20:11;100942.75;;;23.86;61.94
54948;BME280;41113;41.882;12.530;2023-07-29T01:22:39;100944.19;;;23.95;61.00
54948;BME280;41113;41.882;12.530;2023-07-29T01:25:05;100944.78;;;24.04;60.54
54948;BME280;41113;41.882;12.530;2023-07-29T01:27:31;100949.53;;;23.83;61.64
54948;BME280;41113;41.882;12.530;2023-07-29T01:29:57;100937.78;;;23.63;62.13
54948;BME280;41113;41.882;12.530;2023-07-29T01:32:43;100939.69;;;23.49;62.74
54948;BME280;41113;41.882;12.530;2023-07-29T01:35:28;100935.06;;;23.50;62.20
54948;BME280;41113;41.882;12.530;2023-07-29T01:40:42;100932.72;;;23.40;62.68
54948;BME280;41113;41.882;12.530;2023-07-29T01:43:08;100925.59;;;23.33;62.77
54948;BME280;41113;41.882;12.530;2023-07-29T01:45:33;100928.97;;;23.28;62.69
54948;BME280;41113;41.882;12.530;2023-07-29T01:48:04;100928.56;;;23.24;63.07
54948;BME280;41113;41.882;12.530;2023-07-29T01:50:29;100932.38;;;23.10;63.38
54948;BME280;41113;41.882;12.530;2023-07-29T01:52:54;100923.50;;;23.21;62.66
54948;BME280;41113;41.882;12.530;2023-07-29T01:55:20;100925.63;;;23.19;62.23
54948;BME280;41113;41.882;12.530;2023-07-29T01:57:45;100934.88;;;23.32;61.49
54948;BME280;41113;41.882;12.530;2023-07-29T02:00:11;100928.78;;;23.16;61.74
54948;BME280;41113;41.882;12.530;2023-07-29T02:02:37;100925.63;;;23.06;62.12
54948;BME280;41113;41.882;12.530;2023-07-29T02:05:02;100921.41;;;23.04;62.08
54948;BME280;41113;41.882;12.530;2023-07-29T02:07:27;100915.72;;;23.05;61.96
54948;BME280;41113;41.882;12.530;2023-07-29T02:09:53;100914.25;;;22.96;62.08
54948;BME280;41113;41.882;12.530;2023-07-29T02:12:19;100916.34;;;23.07;61.35
54948;BME280;41113;41.882;12.530;2023-07-29T02:14:44;100916.56;;;22.99;61.45
54948;BME280;41113;41.882;12.530;2023-07-29T02:17:09;100917.00;;;23.03;61.43
54948;BME280;41113;41.882;12.530;2023-07-29T02:19:34;100910.44;;;23.04;61.14
54948;BME280;41113;41.882;12.530;2023-07-29T02:22:00;100906.47;;;23.00;61.33
54948;BME280;41113;41.882;12.530;2023-07-29T02:24:25;100902.91;;;22.86;61.61
54948;BME280;41113;41.882;12.530;2023-07-29T02:26:51;100915.53;;;22.87;61.52
54948;BME280;41113;41.882;12.530;2023-07-29T02:29:16;100907.72;;;23.04;60.82
54948;BME280;41113;41.882;12.530;2023-07-29T02:31:41;100900.38;;;22.91;61.12
54948;BME280;41113;41.882;12.530;2023-07-29T02:34:07;100903.47;;;22.75;61.33
54948;BME280;41113;41.882;12.530;2023-07-29T02:36:32;100901.16;;;22.58;61.84
54948;BME280;41113;41.882;12.530;2023-07-29T02:38:57;100899.69;;;22.62;61.82
54948;BME280;41113;41.882;12.530;2023-07-29T02:41:23;100899.50;;;22.57;61.79
54948;BME280;41113;41.882;12.530;2023-07-29T02:43:49;100897.38;;;22.59;62.21
54948;BME280;41113;41.882;12.530;2023-07-29T02:46:15;100903.25;;;22.43;62.70
54948;BME280;41113;41.882;12.530;2023-07-29T02:48:42;100903.25;;;22.43;62.42
54948;BME280;41113;41.882;12.530;2023-07-29T02:51:07;100906.44;;;22.53;62.16
54948;BME280;41113;41.882;12.530;2023-07-29T02:53:32;100905.38;;;22.48;62.19
54948;BME280;41113;41.882;12.530;2023-07-29T02:55:58;100897.97;;;22.42;62.06
54948;BME280;41113;41.882;12.530;2023-07-29T02:58:23;100908.34;;;22.46;61.95
54948;BME280;41113;41.882;12.530;2023-07-29T03:00:48;100905.13;;;22.36;62.27
54948;BME280;41113;41.882;12.530;2023-07-29T03:03:14;100903.50;;;22.48;61.93
54948;BME280;41113;41.882;12.530;2023-07-29T03:05:39;100900.34;;;22.45;61.95
54948;BME280;41113;41.882;12.530;2023-07-29T03:08:05;100907.50;;;22.52;61.97
54948;BME280;41113;41.882;12.530;2023-07-29T03:10:30;100912.94;;;22.32;62.31
54948;BME280;41113;41.882;12.530;2023-07-29T03:12:56;100915.03;;;22.37;62.09
54948;BME280;41113;41.882;12.530;2023-07-29T03:15:25;100923.03;;;22.39;62.47
54948;BME280;41113;41.882;12.530;2023-07-29T03:17:51;100919.84;;;22.22;62.61
54948;BME280;41113;41.882;12.530;2023-07-29T03:20:17;100913.31;;;22.16;62.88
54948;BME280;41113;41.882;12.530;2023-07-29T03:22:45;100921.28;;;22.11;62.84
54948;BME280;41113;41.882;12.530;2023-07-29T03:25:11;100920.22;;;22.05;62.95
54948;BME280;41113;41.882;12.530;2023-07-29T03:27:36;100921.31;;;22.18;62.26
54948;BME280;41113;41.882;12.530;2023-07-29T03:30:03;100926.41;;;22.34;62.13
54948;BME280;41113;41.882;12.530;2023-07-29T03:32:28;100928.53;;;22.45;61.37
54948;BME280;41113;41.882;12.530;2023-07-29T03:34:54;100930.81;;;22.22;62.84
54948;BME280;41113;41.882;12.530;2023-07-29T03:37:20;100925.75;;;22.19;62.77
54948;BME280;41113;41.882;12.530;2023-07-29T03:39:46;100927.63;;;22.18;63.32
54948;BME280;41113;41.882;12.530;2023-07-29T03:42:11;100929.75;;;22.23;62.82
54948;BME280;41113;41.882;12.530;2023-07-29T03:44:37;100927.84;;;22.17;63.25
54948;BME280;41113;41.882;12.530;2023-07-29T03:47:05;100928.50;;;22.32;62.83
54948;BME280;41113;41.882;12.530;2023-07-29T03:49:30;100924.28;;;22.36;62.34
54948;BME280;41113;41.882;12.530;2023-07-29T03:51:56;100932.94;;;22.40;63.19
54948;BME280;41113;41.882;12.530;2023-07-29T03:54:21;100931.22;;;22.19;63.58
54948;BME280;41113;41.882;12.530;2023-07-29T03:56:46;100932.03;;;22.13;64.62
54948;BME280;41113;41.882;12.530;2023-07-29T03:59:12;100927.53;;;21.98;64.74
54948;BME280;41113;41.882;12.530;2023-07-29T04:01:37;100945.34;;;21.81;65.43
54948;BME280;41113;41.882;12.530;2023-07-29T04:04:02;100942.63;;;21.81;65.20
54948;BME280;41113;41.882;12.530;2023-07-29T04:06:28;100944.75;;;21.92;64.53
54948;BME280;41113;41.882;12.530;2023-07-29T04:08:53;100946.44;;;21.93;64.44
54948;BME280;41113;41.882;12.530;2023-07-29T04:11:19;100946.44;;;21.93;64.35
54948;BME280;41113;41.882;12.530;2023-07-29T04:13:44;100948.56;;;21.98;64.12
54948;BME280;41113;41.882;12.530;2023-07-29T04:16:09;100946.44;;;21.87;65.49
54948;BME280;41113;41.882;12.530;2023-07-29T04:18:35;100955.47;;;21.87;65.72
54948;BME280;41113;41.882;12.530;2023-07-29T04:21:00;100945.31;;;22.16;66.20
54948;BME280;41113;41.882;12.530;2023-07-29T04:23:25;100950.94;;;22.82;64.21
54948;BME280;41113;41.882;12.530;2023-07-29T04:25:51;100941.81;;;23.34;62.34
54948;BME280;41113;41.882;12.530;2023-07-29T04:28:17;100950.88;;;24.06;60.04
54948;BME280;41113;41.882;12.530;2023-07-29T04:30:42;100937.69;;;24.66;58.25
54948;BME280;41113;41.882;12.530;2023-07-29T04:33:07;100943.88;;;24.86;57.44
54948;BME280;41113;41.882;12.530;2023-07-29T04:35:33;100942.34;;;25.58;55.62
54948;BME280;41113;41.882;12.530;2023-07-29T04:37:58;100946.78;;;25.41;56.23
54948;BME280;41113;41.882;12.530;2023-07-29T04:40:23;100944.19;;;25.46;56.33
54948;BME280;41113;41.882;12.530;2023-07-29T04:42:49;100948.19;;;26.05;54.96
54948;BME280;41113;41.882;12.530;2023-07-29T04:45:14;100948.25;;;26.35;53.11
54948;BME280;41113;41.882;12.530;2023-07-29T04:47:41;100948.47;;;26.75;51.79
54948;BME280;41113;41.882;12.530;2023-07-29T04:50:07;100949.59;;;26.56;52.45
54948;BME280;41113;41.882;12.530;2023-07-29T04:52:32;100952.38;;;27.21;51.93
54948;BME280;41113;41.882;12.530;2023-07-29T04:54:57;100949.66;;;27.96;49.00
54948;BME280;41113;41.882;12.530;2023-07-29T04:57:23;100946.00;;;28.31;46.98
54948;BME280;41113;41.882;12.530;2023-07-29T04:59:48;100953.81;;;27.12;49.26
54948;BME280;41113;41.882;12.530;2023-07-29T05:02:13;100951.41;;;27.50;49.63
54948;BME280;41113;41.882;12.530;2023-07-29T05:04:39;100952.00;;;27.52;48.66
54948;BME280;41113;41.882;12.530;2023-07-29T05:07:04;100952.59;;;28.18;46.57
54948;BME280;41113;41.882;12.530;2023-07-29T05:09:30;100954.97;;;28.26;46.07
54948;BME280;41113;41.882;12.530;2023-07-29T05:11:55;100952.91;;;28.78;45.64
54948;BME280;41113;41.882;12.530;2023-07-29T05:14:20;100962.00;;;28.45;46.19
54948;BME280;41113;41.882;12.530;2023-07-29T05:16:46;100964.28;;;29.44;44.48
54948;BME280;41113;41.882;12.530;2023-07-29T05:19:11;100955.44;;;29.64;42.32
54948;BME280;41113;41.882;12.530;2023-07-29T05:21:37;100960.91;;;30.24;41.61
54948;BME280;41113;41.882;12.530;2023-07-29T05:24:03;100960.56;;;31.29;40.98
54948;BME280;41113;41.882;12.530;2023-07-29T05:26:28;100956.53;;;31.14;38.56
54948;BME280;41113;41.882;12.530;2023-07-29T05:28:54;100951.38;;;29.71;41.00
54948;BME280;41113;41.882;12.530;2023-07-29T05:31:19;100957.78;;;29.38;42.40
54948;BME280;41113;41.882;12.530;2023-07-29T05:33:44;100953.25;;;28.82;43.30
54948;BME280;41113;41.882;12.530;2023-07-29T05:36:10;100955.53;;;29.52;42.20
54948;BME280;41113;41.882;12.530;2023-07-29T05:38:35;100954.88;;;30.27;40.32
54948;BME280;41113;41.882;12.530;2023-07-29T05:41:00;100946.72;;;30.21;40.27
54948;BME280;41113;41.882;12.530;2023-07-29T05:43:26;100947.09;;;31.15;39.44
54948;BME280;41113;41.882;12.530;2023-07-29T05:45:52;100950.94;;;31.09;38.42
54948;BME280;41113;41.882;12.530;2023-07-29T05:48:19;100956.22;;;30.79;39.51
54948;BME280;41113;41.882;12.530;2023-07-29T05:50:44;100949.34;;;31.55;38.08
54948;BME280;41113;41.882;12.530;2023-07-29T05:53:09;100948.94;;;32.82;36.75
54948;BME280;41113;41.882;12.530;2023-07-29T05:55:35;100950.47;;;33.80;34.45
54948;BME280;41113;41.882;12.530;2023-07-29T05:58:00;100950.59;;;34.68;34.60
54948;BME280;41113;41.882;12.530;2023-07-29T06:00:26;100963.16;;;35.05;33.74
54948;BME280;41113;41.882;12.530;2023-07-29T06:02:51;100955.94;;;36.28;32.61
54948;BME280;41113;41.882;12.530;2023-07-29T06:05:16;100949.69;;;35.12;31.81
54948;BME280;41113;41.882;12.530;2023-07-29T06:07:42;100960.63;;;33.40;35.34
54948;BME280;41113;41.882;12.530;2023-07-29T06:10:12;100954.19;;;34.29;34.98
54948;BME280;41113;41.882;12.530;2023-07-29T06:12:38;100955.59;;;32.71;35.93
54948;BME280;41113;41.882;12.530;2023-07-29T06:15:04;100959.44;;;32.44;37.05
54948;BME280;41113;41.882;12.530;2023-07-29T06:17:29;100964.44;;;33.85;35.67
54948;BME280;41113;41.882;12.530;2023-07-29T06:19:55;100957.72;;;34.89;33.23
54948;BME280;41113;41.882;12.530;2023-07-29T06:22:20;100959.78;;;33.55;35.67
54948;BME280;41113;41.882;12.530;2023-07-29T06:24:45;100961.00;;;34.03;34.06
54948;BME280;41113;41.882;12.530;2023-07-29T06:27:11;100965.97;;;34.16;35.18
54948;BME280;41113;41.882;12.530;2023-07-29T06:29:36;100960.19;;;35.83;33.18
54948;BME280;41113;41.882;12.530;2023-07-29T06:32:02;100969.31;;;36.12;32.38
54948;BME280;41113;41.882;12.530;2023-07-29T06:34:27;100965.00;;;35.72;31.27
54948;BME280;41113;41.882;12.530;2023-07-29T06:36:52;100971.19;;;35.11;33.36
54948;BME280;41113;41.882;12.530;2023-07-29T06:39:17;100973.09;;;36.22;32.17
54948;BME280;41113;41.882;12.530;2023-07-29T06:41:43;100967.38;;;36.69;31.52
54948;BME280;41113;41.882;12.530;2023-07-29T06:44:08;100960.72;;;34.59;32.80
54948;BME280;41113;41.882;12.530;2023-07-29T06:46:33;100962.91;;;34.13;34.67
54948;BME280;41113;41.882;12.530;2023-07-29T06:48:59;100971.75;;;33.15;35.42
54948;BME280;41113;41.882;12.530;2023-07-29T06:51:24;100963.66;;;31.37;39.01
54948;BME280;41113;41.882;12.530;2023-07-29T06:53:49;100970.78;;;31.23;38.82
54948;BME280;41113;41.882;12.530;2023-07-29T06:56:15;100973.69;;;31.43;38.90
54948;BME280;41113;41.882;12.530;2023-07-29T06:58:40;100970.72;;;31.55;38.75
54948;BME280;41113;41.882;12.530;2023-07-29T07:01:06;100979.84;;;31.50;38.54
54948;BME280;41113;41.882;12.530;2023-07-29T07:03:31;100973.44;;;30.81;39.27
54948;BME280;41113;41.882;12.530;2023-07-29T07:05:56;100967.94;;;30.32;40.32
54948;BME280;41113;41.882;12.530;2023-07-29T07:08:22;100979.03;;;30.32;40.44
54948;BME280;41113;41.882;12.530;2023-07-29T07:10:47;100969.03;;;29.49;41.54
54948;BME280;41113;41.882;12.530;2023-07-29T07:13:13;100967.19;;;29.37;41.79
54948;BME280;41113;41.882;12.530;2023-07-29T07:15:38;100964.63;;;29.69;41.12
54948;BME280;41113;41.882;12.530;2023-07-29T07:18:03;100963.03;;;29.95;40.55
54948;BME280;41113;41.882;12.530;2023-07-29T07:20:29;100968.59;;;29.95;40.61
54948;BME280;41113;41.882;12.530;2023-07-29T07:22:54;100955.56;;;29.74;41.08
54948;BME280;41113;41.882;12.530;2023-07-29T07:25:20;100968.16;;;28.81;43.49
54948;BME280;41113;41.882;12.530;2023-07-29T07:27:45;100970.47;;;28.56;43.97
54948;BME280;41113;41.882;12.530;2023-07-29T07:30:11;100967.88;;;28.49;44.44
54948;BME280;41113;41.882;12.530;2023-07-29T07:32:37;100960.25;;;28.85;43.39
54948;BME280;41113;41.882;12.530;2023-07-29T07:35:02;100957.25;;;29.58;41.72
54948;BME280;41113;41.882;12.530;2023-07-29T07:37:27;100959.88;;;29.87;41.37
54948;BME280;41113;41.882;12.530;2023-07-29T07:39:53;100953.13;;;29.99;41.13
54948;BME280;41113;41.882;12.530;2023-07-29T07:42:18;100958.44;;;29.84;41.43
54948;BME280;41113;41.882;12.530;2023-07-29T07:44:43;100958.78;;;29.66;42.14
54948;BME280;41113;41.882;12.530;2023-07-29T07:47:09;100952.13;;;29.89;41.95
54948;BME280;41113;41.882;12.530;2023-07-29T07:49:34;100956.13;;;29.37;43.04
54948;BME280;41113;41.882;12.530;2023-07-29T07:51:59;100960.81;;;29.37;42.99
54948;BME280;41113;41.882;12.530;2023-07-29T07:54:25;100953.94;;;29.78;42.19
54948;BME280;41113;41.882;12.530;2023-07-29T07:56:50;100952.22;;;29.72;42.36
54948;BME280;41113;41.882;12.530;2023-07-29T07:59:15;100947.19;;;29.69;42.35
54948;BME280;41113;41.882;12.530;2023-07-29T08:01:41;100942.84;;;29.56;42.63
54948;BME280;41113;41.882;12.530;2023-07-29T08:04:06;100945.38;;;29.24;43.26
54948;BME280;41113;41.882;12.530;2023-07-29T08:06:32;100952.97;;;28.95;44.37
54948;BME280;41113;41.882;12.530;2023-07-29T08:08:58;100944.03;;;29.43;43.13
54948;BME280;41113;41.882;12.530;2023-07-29T08:11:24;100944.72;;;29.34;43.60
54948;BME280;41113;41.882;12.530;2023-07-29T08:13:49;100953.28;;;29.32;43.58
54948;BME280;41113;41.882;12.530;2023-07-29T08:16:14;100946.34;;;29.68;42.89
54948;BME280;41113;41.882;12.530;2023-07-29T08:18:40;100946.72;;;30.21;41.84
54948;BME280;41113;41.882;12.530;2023-07-29T08:21:06;100955.38;;;30.51;41.30
54948;BME280;41113;41.882;12.530;2023-07-29T08:23:34;100945.53;;;30.12;42.21
54948;BME280;41113;41.882;12.530;2023-07-29T08:26:01;100945.59;;;30.65;41.24
54948;BME280;41113;41.882;12.530;2023-07-29T08:28:34;100944.59;;;30.82;40.85
54948;BME280;41113;41.882;12.530;2023-07-29T08:31:00;100943.13;;;31.01;40.65
54948;BME280;41113;41.882;12.530;2023-07-29T08:33:26;100938.16;;;31.08;40.68
54948;BME280;41113;41.882;12.530;2023-07-29T08:35:52;100939.31;;;31.12;40.35
54948;BME280;41113;41.882;12.530;2023-07-29T08:38:18;100935.41;;;31.13;40.55
54948;BME280;41113;41.882;12.530;2023-07-29T08:40:54;100937.88;;;30.73;40.43
54948;BME280;41113;41.882;12.530;2023-07-29T08:43:29;100931.41;;;30.94;40.63
54948;BME280;41113;41.882;12.530;2023-07-29T08:45:57;100939.94;;;31.19;40.53
54948;BME280;41113;41.882;12.530;2023-07-29T08:48:32;100931.72;;;31.35;40.39
54948;BME280;41113;41.882;12.530;2023-07-29T08:51:03;100940.09;;;31.45;39.61
54948;BME280;41113;41.882;12.530;2023-07-29T08:53:29;100937.50;;;31.28;40.15
54948;BME280;41113;41.882;12.530;2023-07-29T08:55:55;100933.16;;;31.05;40.13
54948;BME280;41113;41.882;12.530;2023-07-29T08:58:21;100944.47;;;30.67;40.63
54948;BME280;41113;41.882;12.530;2023-07-29T09:00:47;100943.75;;;30.54;41.21
54948;BME280;41113;41.882;12.530;2023-07-29T09:03:13;100942.00;;;30.70;40.88
54948;BME280;41113;41.882;12.530;2023-07-29T09:05:39;100936.00;;;30.56;41.04
54948;BME280;41113;41.882;12.530;2023-07-29T09:08:05;100933.72;;;30.48;41.37
54948;BME280;41113;41.882;12.530;2023-07-29T09:10:35;100924.97;;;30.88;40.50
54948;BME280;41113;41.882;12.530;2023-07-29T09:13:01;100933.16;;;31.05;40.13
54948;BME280;41113;41.882;12.530;2023-07-29T09:15:29;100938.13;;;31.03;40.42
54948;BME280;41113;41.882;12.530;2023-07-29T09:17:58;100933.81;;;31.17;39.74
54948;BME280;41113;41.882;12.530;2023-07-29T09:20:25;100928.38;;;31.33;39.46
54948;BME280;41113;41.882;12.530;2023-07-29T09:22:51;100942.34;;;31.48;39.36
54948;BME280;41113;41.882;12.530;2023-07-29T09:25:23;100932.94;;;31.54;39.13
54948;BME280;41113;41.882;12.530;2023-07-29T09:27:48;100940.13;;;31.50;39.23
54948;BME280;41113;41.882;12.530;2023-07-29T09:30:17;100934.56;;;31.50;38.97
54948;BME280;41113;41.882;12.530;2023-07-29T09:32:43;100936.72;;;31.38;39.35
54948;BME280;41113;41.882;12.530;2023-07-29T09:35:12;100937.91;;;31.52;39.02
54948;BME280;41113;41.882;12.530;2023-07-29T09:37:38;100941.25;;;31.54;39.15
54948;BME280;41113;41.882;12.530;2023-07-29T09:40:05;100934.41;;;31.67;39.21
54948;BME280;41113;41.882;12.530;2023-07-29T09:42:31;100935.31;;;31.82;38.84
54948;BME280;41113;41.882;12.530;2023-07-29T09:44:56;100935.41;;;31.98;38.42
54948;BME280;41113;41.882;12.530;2023-07-29T09:47:23;100931.78;;;32.02;38.18
54948;BME280;41113;41.882;12.530;2023-07-29T09:49:49;100931.53;;;32.04;37.86
54948;BME280;41113;41.882;12.530;2023-07-29T09:52:19;100932.91;;;32.06;36.68
54948;BME280;41113;41.882;12.530;2023-07-29T09:54:45;100934.59;;;32.07;37.28
54948;BME280;41113;41.882;12.530;2023-07-29T09:57:14;100923.22;;;32.14;36.73
54948;BME280;41113;41.882;12.530;2023-07-29T09:59:41;100931.63;;;32.29;37.11
54948;BME280;41113;41.882;12.530;2023-07-29T10:02:15;100926.09;;;32.39;36.81
54948;BME280;41113;41.882;12.530;2023-07-29T10:04:41;100929.97;;;32.48;37.01
54948;BME280;41113;41.882;12.530;2023-07-29T10:07:07;100931.38;;;32.51;37.12
54948;BME280;41113;41.882;12.530;2023-07-29T10:09:34;100930.50;;;32.25;37.38
54948;BME280;41113;41.882;12.530;2023-07-29T10:12:00;100931.06;;;32.27;37.12
54948;BME280;41113;41.882;12.530;2023-07-29T10:14:27;100928.81;;;32.24;37.55
54948;BME280;41113;41.882;12.530;2023-07-29T10:16:53;100936.66;;;32.32;37.41
54948;BME280;41113;41.882;12.530;2023-07-29T10:19:19;100931.63;;;32.29;37.80
54948;BME280;41113;41.882;12.530;2023-07-29T10:21:47;100930.25;;;32.27;37.60
54948;BME280;41113;41.882;12.530;2023-07-29T10:24:16;100938.22;;;32.13;37.62
54948;BME280;41113;41.882;12.530;2023-07-29T10:26:46;100932.63;;;32.03;37.45
54948;BME280;41113;41.882;12.530;2023-07-29T10:29:12;100927.06;;;32.03;38.06
54948;BME280;41113;41.882;12.530;2023-07-29T10:31:43;100922.56;;;31.86;38.05
54948;BME280;41113;41.882;12.530;2023-07-29T10:34:09;100928.47;;;32.00;38.33
54948;BME280;41113;41.882;12.530;2023-07-29T10:36:36;100926.25;;;32.12;37.91
54948;BME280;41113;41.882;12.530;2023-07-29T10:39:02;100918.84;;;32.28;38.07
54948;BME280;41113;41.882;12.530;2023-07-29T10:41:56;100917.19;;;32.32;36.43
54948;BME280;41113;41.882;12.530;2023-07-29T10:47:13;100911.53;;;32.12;36.99
54948;BME280;41113;41.882;12.530;2023-07-29T10:49:47;100909.84;;;32.06;37.77
54948;BME280;41113;41.882;12.530;2023-07-29T10:52:17;100902.63;;;32.05;38.03
54948;BME280;41113;41.882;12.530;2023-07-29T10:54:52;100903.19;;;32.12;37.71
54948;BME280;41113;41.882;12.530;2023-07-29T10:57:35;100899.03;;;32.09;37.19
54948;BME280;41113;41.882;12.530;2023-07-29T11:00:02;100887.06;;;32.04;37.85
54948;BME280;41113;41.882;12.530;2023-07-29T11:02:30;100897.63;;;32.12;37.30
54948;BME280;41113;41.882;12.530;2023-07-29T11:04:56;100892.06;;;32.12;37.56
54948;BME280;41113;41.882;12.530;2023-07-29T11:07:23;100882.66;;;32.23;37.72
54948;BME280;41113;41.882;12.530;2023-07-29T11:12:36;100883.50;;;32.24;40.96
54948;BME280;41113;41.882;12.530;2023-07-29T11:17:48;100891.06;;;32.33;39.99
54948;BME280;41113;41.882;12.530;2023-07-29T11:20:15;100891.31;;;32.32;40.81
54948;BME280;41113;41.882;12.530;2023-07-29T11:22:41;100880.41;;;32.15;41.98
54948;BME280;41113;41.882;12.530;2023-07-29T11:25:09;100893.47;;;32.19;42.43
54948;BME280;41113;41.882;12.530;2023-07-29T11:27:35;100891.59;;;32.25;41.87
54948;BME280;41113;41.882;12.530;2023-07-29T11:30:02;100888.00;;;32.30;41.41
54948;BME280;41113;41.882;12.530;2023-07-29T11:32:30;100886.59;;;32.32;41.19
54948;BME280;41113;41.882;12.530;2023-07-29T11:34:56;100888.00;;;32.30;41.15
54948;BME280;41113;41.882;12.530;2023-07-29T11:37:21;100884.66;;;32.28;41.53
54948;BME280;41113;41.882;12.530;2023-07-29T11:39:47;100879.38;;;32.31;41.74
54948;BME280;41113;41.882;12.530;2023-07-29T11:42:14;100875.47;;;32.32;41.69
54948;BME280;41113;41.882;12.530;2023-07-29T11:44:40;100869.91;;;32.27;42.67
54948;BME280;41113;41.882;12.530;2023-07-29T11:47:09;100876.53;;;32.16;43.12
54948;BME280;41113;41.882;12.530;2023-07-29T11:49:35;100875.44;;;32.22;42.43
54948;BME280;41113;41.882;12.530;2023-07-29T11:52:02;100879.94;;;32.28;42.32
54948;BME280;41113;41.882;12.530;2023-07-29T11:54:29;100872.16;;;32.30;42.28
54948;BME280;41113;41.882;12.530;2023-07-29T11:56:55;100868.75;;;32.18;42.96
54948;BME280;41113;41.882;12.530;2023-07-29T11:59:20;100876.28;;;32.23;42.86
54948;BME280;41113;41.882;12.530;2023-07-29T12:01:46;100878.78;;;32.24;42.50
54948;BME280;41113;41.882;12.530;2023-07-29T12:04:12;100875.44;;;32.22;43.26
54948;BME280;41113;41.882;12.530;2023-07-29T12:06:38;100876.59;;;32.26;42.99
54948;BME280;41113;41.882;12.530;2023-07-29T12:09:04;100874.94;;;32.25;42.97
54948;BME280;41113;41.882;12.530;2023-07-29T12:11:30;100879.63;;;32.25;43.43
54948;BME280;41113;41.882;12.530;2023-07-29T12:13:55;100880.69;;;32.18;43.29
54948;BME280;41113;41.882;12.530;2023-07-29T12:16:21;100875.72;;;32.21;43.33
54948;BME280;41113;41.882;12.530;2023-07-29T12:18:46;100873.47;;;32.17;43.41
54948;BME280;41113;41.882;12.530;2023-07-29T12:21:14;100877.34;;;32.16;43.61
54948;BME280;41113;41.882;12.530;2023-07-29T12:23:39;100880.41;;;32.10;44.39
54948;BME280;41113;41.882;12.530;2023-07-29T12:26:05;100878.19;;;32.07;44.22
54948;BME280;41113;41.882;12.530;2023-07-29T12:28:30;100877.63;;;32.15;44.18
54948;BME280;41113;41.882;12.530;2023-07-29T12:30:56;100870.69;;;32.17;43.99
54948;BME280;41113;41.882;12.530;2023-07-29T12:33:32;100869.84;;;32.12;44.95
54948;BME280;41113;41.882;12.530;2023-07-29T12:35:57;100867.34;;;32.10;44.89
54948;BME280;41113;41.882;12.530;2023-07-29T12:38:25;100868.72;;;32.08;44.93
54948;BME280;41113;41.882;12.530;2023-07-29T12:40:51;100865.41;;;32.06;44.99
54948;BME280;41113;41.882;12.530;2023-07-29T12:43:16;100875.69;;;32.05;45.08
54948;BME280;41113;41.882;12.530;2023-07-29T12:45:41;100869.28;;;32.15;44.90
54948;BME280;41113;41.882;12.530;2023-07-29T12:48:08;100867.63;;;32.14;44.57
54948;BME280;41113;41.882;12.530;2023-07-29T12:50:33;100862.63;;;32.11;45.06
54948;BME280;41113;41.882;12.530;2023-07-29T12:52:59;100857.63;;;32.03;45.05